createdAt,value
2023-04-21T00:00:07.969Z,1020.72
2023-04-21T00:00:39.242Z,1020.72
2023-04-21T00:01:10.597Z,1020.52
2023-04-21T00:01:43.076Z,1020.52
2023-04-21T00:02:15.558Z,1020.52
2023-04-21T00:02:38.384Z,1020.62
2023-04-21T00:03:07.040Z,1020.62
2023-04-21T00:03:36.988Z,1020.62
2023-04-21T00:04:07.949Z,1020.62
2023-04-21T00:04:39.677Z,1020.62
2023-04-21T00:05:10.402Z,1020.62
2023-04-21T00:05:43.006Z,1020.62
2023-04-21T00:06:14.781Z,1020.52
2023-04-21T00:06:37.450Z,1020.42
2023-04-21T00:07:00.031Z,1020.42
2023-04-21T00:07:35.511Z,1020.42
2023-04-21T00:08:07.710Z,1020.52
2023-04-21T00:08:39.109Z,1020.52
2023-04-21T00:09:10.828Z,1020.52
2023-04-21T00:09:42.826Z,1020.52
2023-04-21T00:10:15.363Z,1020.22
2023-04-21T00:10:37.922Z,1020.42
2023-04-21T00:11:00.524Z,1020.42
2023-04-21T00:11:34.968Z,1020.42
2023-04-21T00:12:08.065Z,1020.32
2023-04-21T00:12:39.152Z,1020.32
2023-04-21T00:13:11.721Z,1020.52
2023-04-21T00:13:43.492Z,1020.52
2023-04-21T00:14:15.145Z,1020.52
2023-04-21T00:14:37.867Z,1020.42
2023-04-21T00:15:00.294Z,1020.42
2023-04-21T00:15:35.302Z,1020.42
2023-04-21T00:16:08.673Z,1020.52
2023-04-21T00:16:39.299Z,1020.52
2023-04-21T00:17:10.922Z,1020.52
2023-04-21T00:17:43.081Z,1020.52
2023-04-21T00:18:15.461Z,1020.42
2023-04-21T00:18:38.155Z,1020.32
2023-04-21T00:19:00.802Z,1020.32
2023-04-21T00:19:35.678Z,1020.32
2023-04-21T00:20:09.486Z,1020.83
2023-04-21T00:20:39.136Z,1020.83
2023-04-21T00:21:09.981Z,1020.62
2023-04-21T00:21:43.001Z,1020.62
2023-04-21T00:22:14.768Z,1020.62
2023-04-21T00:22:37.602Z,1020.52
2023-04-21T00:22:59.975Z,1020.52
2023-04-21T00:23:35.960Z,1020.52
2023-04-21T00:24:09.450Z,1020.72
2023-04-21T00:24:39.213Z,1020.72
2023-04-21T00:25:09.985Z,1020.52
2023-04-21T00:25:43.740Z,1020.52
2023-04-21T00:26:15.070Z,1020.52
2023-04-21T00:26:37.783Z,1020.62
2023-04-21T00:27:00.291Z,1020.62
2023-04-21T00:27:35.003Z,1020.62
2023-04-21T00:28:08.039Z,1020.52
2023-04-21T00:28:39.319Z,1020.52
2023-04-21T00:29:10.141Z,1020.32
2023-04-21T00:29:42.942Z,1020.32
2023-04-21T00:30:14.948Z,1020.32
2023-04-21T00:30:38.211Z,1020.52
2023-04-21T00:31:00.883Z,1020.52
2023-04-21T00:31:34.895Z,1020.52
2023-04-21T00:32:07.433Z,1020.32
2023-04-21T00:32:39.260Z,1020.32
2023-04-21T00:33:10.904Z,1020.42
2023-04-21T00:33:43.455Z,1020.42
2023-04-21T00:34:15.183Z,1020.42
2023-04-21T00:34:37.907Z,1020.52
2023-04-21T00:35:00.207Z,1020.52
2023-04-21T00:35:35.957Z,1020.52
2023-04-21T00:36:07.113Z,1020.42
2023-04-21T00:36:39.955Z,1020.42
2023-04-21T00:37:11.344Z,1020.32
2023-04-21T00:37:43.720Z,1020.32
2023-04-21T00:38:15.136Z,1020.32
2023-04-21T00:38:37.843Z,1020.22
2023-04-21T00:39:00.581Z,1020.22
2023-04-21T00:39:35.302Z,1020.22
2023-04-21T00:40:07.965Z,1020.42
2023-04-21T00:40:38.975Z,1020.42
2023-04-21T00:41:11.612Z,1020.22
2023-04-21T00:41:43.068Z,1020.22
2023-04-21T00:42:16.414Z,1020.22
2023-04-21T00:42:38.948Z,1020.11
2023-04-21T00:43:01.361Z,1020.11
2023-04-21T00:43:35.544Z,1020.11
2023-04-21T00:44:07.023Z,1020.22
2023-04-21T00:44:40.364Z,1020.22
2023-04-21T00:45:12.235Z,1020.22
2023-04-21T00:45:45.467Z,1020.22
2023-04-21T00:46:15.194Z,1020.22
2023-04-21T00:46:37.530Z,1020.11
2023-04-21T00:47:00.247Z,1020.11
2023-04-21T00:47:34.819Z,1020.11
2023-04-21T00:48:12.372Z,1020.32
2023-04-21T00:48:39.481Z,1020.32
2023-04-21T00:49:12.760Z,1020.11
2023-04-21T00:49:43.019Z,1020.11
2023-04-21T00:50:15.765Z,1020.01
2023-04-21T00:50:38.055Z,1020.01
2023-04-21T00:51:00.739Z,1020.01
2023-04-21T00:51:35.845Z,1020.01
2023-04-21T00:52:06.959Z,1020.22
2023-04-21T00:52:38.911Z,1020.22
2023-04-21T00:53:09.820Z,1020.22
2023-04-21T00:53:42.867Z,1020.22
2023-04-21T00:54:15.203Z,1020.01
2023-04-21T00:54:37.896Z,1020.11
2023-04-21T00:55:01.334Z,1020.11
2023-04-21T00:55:34.927Z,1020.11
2023-04-21T00:56:07.464Z,1020.22
2023-04-21T00:56:39.841Z,1020.22
2023-04-21T00:57:10.026Z,1020.11
2023-04-21T00:57:43.723Z,1020.11
2023-04-21T00:58:15.249Z,1020.01
2023-04-21T00:58:37.972Z,1020.11
2023-04-21T00:59:00.395Z,1020.11
2023-04-21T00:59:34.873Z,1020.11
2023-04-21T01:00:07.020Z,1020.42
2023-04-21T01:00:40.061Z,1020.42
2023-04-21T01:01:09.995Z,1020.22
2023-04-21T01:01:43.611Z,1020.22
2023-04-21T01:02:15.345Z,1020.42
2023-04-21T01:02:38.049Z,1020.32
2023-04-21T01:03:00.443Z,1020.32
2023-04-21T01:03:36.970Z,1020.32
2023-04-21T01:04:07.748Z,1020.32
2023-04-21T01:04:38.936Z,1020.32
2023-04-21T01:05:10.036Z,1020.22
2023-04-21T01:05:42.869Z,1020.22
2023-04-21T01:06:15.141Z,1020.52
2023-04-21T01:06:37.879Z,1020.42
2023-04-21T01:07:00.182Z,1020.42
2023-04-21T01:07:36.057Z,1020.42
2023-04-21T01:08:07.114Z,1020.62
2023-04-21T01:08:39.103Z,1020.62
2023-04-21T01:09:09.914Z,1020.32
2023-04-21T01:09:42.880Z,1020.32
2023-04-21T01:10:15.354Z,1020.22
2023-04-21T01:10:37.507Z,1020.32
2023-04-21T01:11:00.439Z,1020.32
2023-04-21T01:11:34.843Z,1020.32
2023-04-21T01:12:06.969Z,1020.42
2023-04-21T01:12:39.206Z,1020.42
2023-04-21T01:13:10.382Z,1020.52
2023-04-21T01:13:43.363Z,1020.52
2023-04-21T01:14:15.898Z,1020.42
2023-04-21T01:14:38.116Z,1020.22
2023-04-21T01:15:00.721Z,1020.22
2023-04-21T01:15:34.813Z,1020.22
2023-04-21T01:16:06.875Z,1020.22
2023-04-21T01:16:39.877Z,1020.22
2023-04-21T01:17:10.007Z,1020.32
2023-04-21T01:17:43.497Z,1020.32
2023-04-21T01:18:16.183Z,1020.32
2023-04-21T01:18:37.981Z,1020.52
2023-04-21T01:19:00.190Z,1020.52
2023-04-21T01:19:34.719Z,1020.52
2023-04-21T01:20:07.193Z,1020.42
2023-04-21T01:20:39.361Z,1020.42
2023-04-21T01:21:10.364Z,1020.32
2023-04-21T01:21:42.834Z,1020.32
2023-04-21T01:22:16.821Z,1020.32
2023-04-21T01:22:37.578Z,1020.22
2023-04-21T01:22:59.989Z,1020.22
2023-04-21T01:23:35.386Z,1020.22
2023-04-21T01:24:07.178Z,1020.32
2023-04-21T01:24:39.785Z,1020.32
2023-04-21T01:25:10.060Z,1020.22
2023-04-21T01:25:43.667Z,1020.22
2023-04-21T01:26:17.446Z,1020.52
2023-04-21T01:26:37.841Z,1020.42
2023-04-21T01:27:00.717Z,1020.42
2023-04-21T01:27:35.077Z,1020.42
2023-04-21T01:28:07.140Z,1020.32
2023-04-21T01:28:38.919Z,1020.32
2023-04-21T01:29:10.522Z,1020.32
2023-04-21T01:29:42.892Z,1020.32
2023-04-21T01:30:15.565Z,1020.42
2023-04-21T01:30:38.114Z,1020.32
2023-04-21T01:31:00.522Z,1020.32
2023-04-21T01:31:35.927Z,1020.32
2023-04-21T01:32:08.146Z,1020.11
2023-04-21T01:32:39.044Z,1020.11
2023-04-21T01:33:10.193Z,1020.32
2023-04-21T01:33:43.682Z,1020.32
2023-04-21T01:34:15.255Z,1020.32
2023-04-21T01:34:37.908Z,1020.22
2023-04-21T01:35:01.155Z,1020.22
2023-04-21T01:35:35.473Z,1020.22
2023-04-21T01:36:07.546Z,1020.32
2023-04-21T01:36:38.880Z,1020.32
2023-04-21T01:37:10.594Z,1020.42
2023-04-21T01:37:43.035Z,1020.42
2023-04-21T01:38:16.086Z,1020.32
2023-04-21T01:38:37.648Z,1020.32
2023-04-21T01:39:00.047Z,1020.32
2023-04-21T01:39:36.220Z,1020.32
2023-04-21T01:40:07.150Z,1020.22
2023-04-21T01:40:38.818Z,1020.22
2023-04-21T01:41:09.932Z,1020.11
2023-04-21T01:41:43.643Z,1020.11
2023-04-21T01:42:15.306Z,1020.42
2023-04-21T01:42:38.584Z,1020.32
2023-04-21T01:43:01.158Z,1020.32
2023-04-21T01:43:35.368Z,1020.32
2023-04-21T01:44:07.299Z,1020.62
2023-04-21T01:44:38.888Z,1020.62
2023-04-21T01:45:10.097Z,1020.52
2023-04-21T01:45:43.504Z,1020.52
2023-04-21T01:46:15.200Z,1020.52
2023-04-21T01:46:37.841Z,1020.42
2023-04-21T01:47:00.371Z,1020.42
2023-04-21T01:47:35.433Z,1020.42
2023-04-21T01:48:08.441Z,1020.22
2023-04-21T01:48:39.015Z,1020.22
2023-04-21T01:49:10.606Z,1020.32
2023-04-21T01:49:43.096Z,1020.32
2023-04-21T01:50:15.795Z,1020.32
2023-04-21T01:50:38.156Z,1020.42
2023-04-21T01:51:01.733Z,1020.42
2023-04-21T01:51:35.153Z,1020.42
2023-04-21T01:52:07.249Z,1020.42
2023-04-21T01:52:39.460Z,1020.42
2023-04-21T01:53:10.335Z,1020.42
2023-04-21T01:53:42.689Z,1020.42
2023-04-21T01:54:14.859Z,1020.32
2023-04-21T01:54:37.664Z,1020.32
2023-04-21T01:55:02.542Z,1020.32
2023-04-21T01:55:42.857Z,1020.52
2023-04-21T01:56:05.097Z,1020.52
2023-04-21T01:56:38.930Z,1020.52
2023-04-21T01:57:10.238Z,1020.52
2023-04-21T01:57:43.074Z,1020.52
2023-04-21T01:58:15.478Z,1020.42
2023-04-21T01:58:38.242Z,1020.42
2023-04-21T01:59:00.486Z,1020.42
2023-04-21T01:59:34.834Z,1020.42
2023-04-21T02:00:08.826Z,1020.32
2023-04-21T02:00:39.325Z,1020.32
2023-04-21T02:01:10.360Z,1020.42
2023-04-21T02:01:43.312Z,1020.42
2023-04-21T02:02:15.839Z,1020.32
2023-04-21T02:02:38.452Z,1020.32
2023-04-21T02:03:00.777Z,1020.32
2023-04-21T02:03:37.802Z,1020.32
2023-04-21T02:04:08.125Z,1020.22
2023-04-21T02:04:39.582Z,1020.22
2023-04-21T02:05:09.925Z,1020.22
2023-04-21T02:05:42.974Z,1020.22
2023-04-21T02:06:14.793Z,1020.52
2023-04-21T02:06:37.543Z,1020.52
2023-04-21T02:06:59.997Z,1020.52
2023-04-21T02:07:35.405Z,1020.52
2023-04-21T02:08:07.325Z,1020.42
2023-04-21T02:08:39.005Z,1020.42
2023-04-21T02:09:10.434Z,1020.32
2023-04-21T02:09:42.706Z,1020.32
2023-04-21T02:10:15.055Z,1020.42
2023-04-21T02:10:37.838Z,1020.32
2023-04-21T02:11:00.362Z,1020.32
2023-04-21T02:11:34.826Z,1020.32
2023-04-21T02:12:06.886Z,1020.32
2023-04-21T02:12:39.409Z,1020.32
2023-04-21T02:13:12.009Z,1020.42
2023-04-21T02:13:44.036Z,1020.42
2023-04-21T02:14:15.236Z,1020.42
2023-04-21T02:14:38.282Z,1020.42
2023-04-21T02:15:02.333Z,1020.42
2023-04-21T02:15:35.658Z,1020.42
2023-04-21T02:16:13.834Z,1020.11
2023-04-21T02:16:39.118Z,1020.11
2023-04-21T02:17:10.884Z,1020.32
2023-04-21T02:17:43.353Z,1020.32
2023-04-21T02:18:15.431Z,1020.32
2023-04-21T02:18:37.798Z,1020.32
2023-04-21T02:19:00.652Z,1020.32
2023-04-21T02:19:34.758Z,1020.32
2023-04-21T02:20:06.666Z,1020.32
2023-04-21T02:20:39.377Z,1020.32
2023-04-21T02:21:12.408Z,1020.11
2023-04-21T02:21:42.974Z,1020.11
2023-04-21T02:22:15.464Z,1020.32
2023-04-21T02:22:38.189Z,1020.32
2023-04-21T02:23:00.420Z,1020.32
2023-04-21T02:23:35.473Z,1020.32
2023-04-21T02:24:07.155Z,1020.42
2023-04-21T02:24:38.826Z,1020.42
2023-04-21T02:25:09.937Z,1020.42
2023-04-21T02:25:50.918Z,1020.32
2023-04-21T02:26:13.490Z,1020.32
2023-04-21T02:26:36.322Z,1020.32
2023-04-21T02:26:58.694Z,1020.32
2023-04-21T02:27:34.975Z,1020.32
2023-04-21T02:28:07.107Z,1020.32
2023-04-21T02:28:39.147Z,1020.32
2023-04-21T02:29:09.944Z,1020.42
2023-04-21T02:29:43.395Z,1020.42
2023-04-21T02:30:14.843Z,1020.32
2023-04-21T02:30:37.473Z,1020.52
2023-04-21T02:31:00.087Z,1020.52
2023-04-21T02:31:40.596Z,1020.52
2023-04-21T02:32:39.315Z,1020.52
2023-04-21T02:33:10.530Z,1020.52
2023-04-21T02:33:43.772Z,1020.52
2023-04-21T02:34:15.245Z,1020.62
2023-04-21T02:34:37.975Z,1020.52
2023-04-21T02:35:00.547Z,1020.52
2023-04-21T02:35:34.880Z,1020.52
2023-04-21T02:36:07.647Z,1020.42
2023-04-21T02:36:39.471Z,1020.42
2023-04-21T02:37:09.957Z,1020.42
2023-04-21T02:37:43.524Z,1020.42
2023-04-21T02:38:15.006Z,1020.32
2023-04-21T02:38:37.708Z,1020.42
2023-04-21T02:39:01.654Z,1020.42
2023-04-21T02:39:35.618Z,1020.42
2023-04-21T02:40:07.373Z,1020.32
2023-04-21T02:40:39.327Z,1020.32
2023-04-21T02:41:10.322Z,1020.52
2023-04-21T02:41:42.765Z,1020.52
2023-04-21T02:42:15.065Z,1020.42
2023-04-21T02:42:37.592Z,1020.32
2023-04-21T02:43:00.522Z,1020.32
2023-04-21T02:43:35.460Z,1020.32
2023-04-21T02:44:07.168Z,1020.42
2023-04-21T02:44:39.279Z,1020.42
2023-04-21T02:45:12.080Z,1020.52
2023-04-21T02:45:45.283Z,1020.52
2023-04-21T02:46:14.733Z,1020.42
2023-04-21T02:46:37.378Z,1020.72
2023-04-21T02:46:59.942Z,1020.72
2023-04-21T02:47:34.935Z,1020.72
2023-04-21T02:48:08.531Z,1020.52
2023-04-21T02:48:39.326Z,1020.52
2023-04-21T02:49:10.576Z,1020.52
2023-04-21T02:49:43.062Z,1020.52
2023-04-21T02:50:14.952Z,1020.62
2023-04-21T02:50:38.029Z,1020.52
2023-04-21T02:51:00.656Z,1020.52
2023-04-21T02:51:42.847Z,1020.42
2023-04-21T02:52:07.094Z,1020.42
2023-04-21T02:52:39.264Z,1020.42
2023-04-21T02:53:09.924Z,1020.42
2023-04-21T02:53:42.737Z,1020.42
2023-04-21T02:54:14.782Z,1020.42
2023-04-21T02:54:37.639Z,1020.52
2023-04-21T02:55:02.090Z,1020.52
2023-04-21T02:55:35.176Z,1020.52
2023-04-21T02:56:07.171Z,1020.42
2023-04-21T02:56:38.991Z,1020.42
2023-04-21T02:57:12.565Z,1020.52
2023-04-21T02:57:42.858Z,1020.52
2023-04-21T02:58:15.270Z,1020.52
2023-04-21T02:58:39.505Z,1020.52
2023-04-21T02:59:00.359Z,1020.52
2023-04-21T02:59:35.003Z,1020.52
2023-04-21T03:00:10.392Z,1020.32
2023-04-21T03:00:39.409Z,1020.32
2023-04-21T03:01:09.962Z,1020.42
2023-04-21T03:01:42.878Z,1020.42
2023-04-21T03:02:15.937Z,1020.52
2023-04-21T03:02:38.706Z,1020.52
2023-04-21T03:03:03.350Z,1020.52
2023-04-21T03:03:36.601Z,1020.52
2023-04-21T03:04:07.220Z,1020.72
2023-04-21T03:04:39.096Z,1020.72
2023-04-21T03:05:09.935Z,1020.32
2023-04-21T03:05:42.768Z,1020.32
2023-04-21T03:06:14.930Z,1020.22
2023-04-21T03:06:37.753Z,1020.42
2023-04-21T03:07:00.117Z,1020.42
2023-04-21T03:07:36.607Z,1020.42
2023-04-21T03:08:06.850Z,1020.52
2023-04-21T03:08:39.350Z,1020.52
2023-04-21T03:09:10.191Z,1020.52
2023-04-21T03:09:44.429Z,1020.52
2023-04-21T03:10:16.741Z,1020.52
2023-04-21T03:10:37.895Z,1020.62
2023-04-21T03:11:01.082Z,1020.62
2023-04-21T03:11:34.642Z,1020.62
2023-04-21T03:12:06.975Z,1020.62
2023-04-21T03:12:38.725Z,1020.62
2023-04-21T03:13:11.832Z,1020.52
2023-04-21T03:13:43.034Z,1020.52
2023-04-21T03:14:15.124Z,1020.52
2023-04-21T03:14:37.664Z,1020.52
2023-04-21T03:15:04.649Z,1020.52
2023-04-21T03:15:39.137Z,1020.52
2023-04-21T03:16:07.083Z,1020.42
2023-04-21T03:16:40.762Z,1020.42
2023-04-21T03:17:10.066Z,1020.72
2023-04-21T03:17:43.152Z,1020.72
2023-04-21T03:18:14.734Z,1020.42
2023-04-21T03:18:37.731Z,1020.42
2023-04-21T03:19:00.032Z,1020.42
2023-04-21T03:19:35.042Z,1020.42
2023-04-21T03:20:08.517Z,1020.52
2023-04-21T03:20:39.346Z,1020.52
2023-04-21T03:21:10.067Z,1020.62
2023-04-21T03:21:43.028Z,1020.62
2023-04-21T03:22:15.303Z,1020.62
2023-04-21T03:22:38.500Z,1020.52
2023-04-21T03:23:01.027Z,1020.52
2023-04-21T03:23:38.307Z,1020.52
2023-04-21T03:24:07.108Z,1020.42
2023-04-21T03:24:38.940Z,1020.42
2023-04-21T03:25:10.259Z,1020.52
2023-04-21T03:25:43.777Z,1020.52
2023-04-21T03:26:15.575Z,1020.42
2023-04-21T03:26:38.293Z,1020.32
2023-04-21T03:27:01.573Z,1020.32
2023-04-21T03:27:36.351Z,1020.32
2023-04-21T03:28:07.605Z,1020.42
2023-04-21T03:28:39.350Z,1020.42
2023-04-21T03:29:10.350Z,1020.22
2023-04-21T03:29:42.749Z,1020.22
2023-04-21T03:30:14.782Z,1020.22
2023-04-21T03:30:37.658Z,1020.62
2023-04-21T03:31:01.281Z,1020.62
2023-04-21T03:31:37.183Z,1020.62
2023-04-21T03:32:08.719Z,1020.62
2023-04-21T03:32:39.782Z,1020.62
2023-04-21T03:33:13.719Z,1020.52
2023-04-21T03:33:45.001Z,1020.42
2023-04-21T03:34:14.733Z,1020.42
2023-04-21T03:34:37.346Z,1020.22
2023-04-21T03:35:00.263Z,1020.22
2023-04-21T03:35:37.177Z,1020.22
2023-04-21T03:36:07.302Z,1020.52
2023-04-21T03:36:38.858Z,1020.52
2023-04-21T03:37:10.963Z,1020.42
2023-04-21T03:37:42.915Z,1020.42
2023-04-21T03:38:15.481Z,1020.42
2023-04-21T03:38:38.493Z,1020.52
2023-04-21T03:39:12.769Z,1020.52
2023-04-21T03:39:36.456Z,1020.52
2023-04-21T03:40:07.297Z,1020.52
2023-04-21T03:40:39.306Z,1020.52
2023-04-21T03:41:10.712Z,1020.42
2023-04-21T03:41:43.032Z,1020.42
2023-04-21T03:42:15.007Z,1020.22
2023-04-21T03:42:38.430Z,1020.42
2023-04-21T03:43:00.163Z,1020.42
2023-04-21T03:43:35.072Z,1020.42
2023-04-21T03:44:06.923Z,1020.32
2023-04-21T03:44:38.891Z,1020.32
2023-04-21T03:45:10.335Z,1020.62
2023-04-21T03:45:42.820Z,1020.62
2023-04-21T03:46:15.270Z,1020.52
2023-04-21T03:46:38.862Z,1020.22
2023-04-21T03:47:00.441Z,1020.22
2023-04-21T03:47:35.084Z,1020.22
2023-04-21T03:48:09.110Z,1020.42
2023-04-21T03:48:40.162Z,1020.42
2023-04-21T03:49:12.169Z,1020.22
2023-04-21T03:49:43.222Z,1020.22
2023-04-21T03:50:17.359Z,1020.42
2023-04-21T03:50:40.085Z,1020.32
2023-04-21T03:51:02.312Z,1020.32
2023-04-21T03:51:35.173Z,1020.32
2023-04-21T03:52:07.222Z,1020.62
2023-04-21T03:52:39.775Z,1020.62
2023-04-21T03:53:10.159Z,1020.32
2023-04-21T03:53:43.077Z,1020.32
2023-04-21T03:54:15.076Z,1020.52
2023-04-21T03:54:39.664Z,1020.32
2023-04-21T03:55:00.057Z,1020.32
2023-04-21T03:55:35.544Z,1020.32
2023-04-21T03:56:06.920Z,1020.42
2023-04-21T03:56:40.041Z,1020.42
2023-04-21T03:57:10.225Z,1020.32
2023-04-21T03:57:46.477Z,1020.32
2023-04-21T03:58:08.809Z,1020.32
2023-04-21T03:58:41.500Z,1020.42
2023-04-21T03:59:19.106Z,1020.42
2023-04-21T03:59:42.510Z,1020.11
2023-04-21T04:00:05.429Z,1020.11
2023-04-21T04:00:40.974Z,1020.11
2023-04-21T04:01:10.073Z,1020.42
2023-04-21T04:01:42.769Z,1020.42
2023-04-21T04:02:15.134Z,1020.52
2023-04-21T04:02:41.228Z,1020.52
2023-04-21T04:03:00.789Z,1020.52
2023-04-21T04:03:35.081Z,1020.52
2023-04-21T04:04:07.295Z,1020.32
2023-04-21T04:04:41.585Z,1020.32
2023-04-21T04:05:09.919Z,1020.32
2023-04-21T04:05:42.770Z,1020.32
2023-04-21T04:06:14.723Z,1020.32
2023-04-21T04:06:37.407Z,1020.32
2023-04-21T04:06:59.616Z,1020.32
2023-04-21T04:07:34.986Z,1020.32
2023-04-21T04:08:06.811Z,1020.52
2023-04-21T04:08:41.215Z,1020.52
2023-04-21T04:09:13.515Z,1020.32
2023-04-21T04:09:46.463Z,1020.32
2023-04-21T04:10:14.728Z,1020.22
2023-04-21T04:10:38.403Z,1020.42
2023-04-21T04:11:00.758Z,1020.42
2023-04-21T04:11:34.730Z,1020.42
2023-04-21T04:12:07.130Z,1020.42
2023-04-21T04:12:38.665Z,1020.42
2023-04-21T04:13:10.094Z,1020.62
2023-04-21T04:13:42.754Z,1020.62
2023-04-21T04:14:14.791Z,1020.42
2023-04-21T04:14:37.535Z,1020.52
2023-04-21T04:15:00.039Z,1020.52
2023-04-21T04:15:34.836Z,1020.52
2023-04-21T04:16:06.912Z,1020.32
2023-04-21T04:16:39.309Z,1020.32
2023-04-21T04:17:09.921Z,1020.32
2023-04-21T04:17:43.425Z,1020.32
2023-04-21T04:18:14.810Z,1020.52
2023-04-21T04:18:37.589Z,1020.52
2023-04-21T04:18:59.914Z,1020.52
2023-04-21T04:19:34.771Z,1020.52
2023-04-21T04:20:06.790Z,1020.42
2023-04-21T04:20:38.887Z,1020.42
2023-04-21T04:21:10.599Z,1020.42
2023-04-21T04:21:44.777Z,1020.42
2023-04-21T04:22:15.019Z,1020.22
2023-04-21T04:22:38.175Z,1020.52
2023-04-21T04:23:00.105Z,1020.52
2023-04-21T04:23:36.261Z,1020.52
2023-04-21T04:24:06.786Z,1020.52
2023-04-21T04:24:38.774Z,1020.52
2023-04-21T04:25:10.893Z,1020.42
2023-04-21T04:25:44.610Z,1020.42
2023-04-21T04:26:15.318Z,1020.52
2023-04-21T04:26:38.492Z,1020.42
2023-04-21T04:27:00.918Z,1020.42
2023-04-21T04:27:34.907Z,1020.42
2023-04-21T04:28:09.310Z,1020.52
2023-04-21T04:28:38.676Z,1020.52
2023-04-21T04:29:10.081Z,1020.32
2023-04-21T04:29:44.536Z,1020.32
2023-04-21T04:30:15.000Z,1020.42
2023-04-21T04:30:38.115Z,1020.22
2023-04-21T04:31:00.491Z,1020.22
2023-04-21T04:31:34.767Z,1020.22
2023-04-21T04:32:06.756Z,1020.22
2023-04-21T04:32:39.292Z,1020.22
2023-04-21T04:33:10.485Z,1020.32
2023-04-21T04:33:45.057Z,1020.32
2023-04-21T04:34:14.691Z,1020.32
2023-04-21T04:34:37.575Z,1020.32
2023-04-21T04:35:00.161Z,1020.32
2023-04-21T04:35:34.924Z,1020.32
2023-04-21T04:36:06.963Z,1020.11
2023-04-21T04:36:38.958Z,1020.11
2023-04-21T04:37:09.919Z,1020.22
2023-04-21T04:37:36.884Z,1020.22
2023-04-21T04:38:10.589Z,1020.22
2023-04-21T04:38:42.064Z,1020.32
2023-04-21T04:39:20.334Z,1020.32
2023-04-21T04:39:42.065Z,1020.01
2023-04-21T04:40:04.780Z,1020.01
2023-04-21T04:40:38.902Z,1020.01
2023-04-21T04:41:10.319Z,1020.32
2023-04-21T04:41:42.726Z,1020.32
2023-04-21T04:42:14.699Z,1020.11
2023-04-21T04:42:37.822Z,1020.32
2023-04-21T04:43:00.383Z,1020.32
2023-04-21T04:43:36.003Z,1020.32
2023-04-21T04:44:07.567Z,1020.32
2023-04-21T04:44:38.847Z,1020.32
2023-04-21T04:45:10.362Z,1020.22
2023-04-21T04:45:46.978Z,1020.22
2023-04-21T04:46:15.355Z,1020.22
2023-04-21T04:46:37.975Z,1020.22
2023-04-21T04:47:00.709Z,1020.22
2023-04-21T04:47:35.587Z,1020.22
2023-04-21T04:48:09.513Z,1020.32
2023-04-21T04:48:39.621Z,1020.32
2023-04-21T04:49:11.850Z,1020.11
2023-04-21T04:49:42.955Z,1020.11
2023-04-21T04:50:15.201Z,1020.22
2023-04-21T04:50:38.084Z,1020.11
2023-04-21T04:51:01.344Z,1020.11
2023-04-21T04:51:35.460Z,1020.11
2023-04-21T04:52:07.841Z,1020.01
2023-04-21T04:52:39.077Z,1020.01
2023-04-21T04:53:10.656Z,1020.22
2023-04-21T04:53:43.630Z,1020.22
2023-04-21T04:54:15.158Z,1020.22
2023-04-21T04:54:37.704Z,1020.11
2023-04-21T04:55:00.210Z,1020.11
2023-04-21T04:55:35.076Z,1020.11
2023-04-21T04:56:06.761Z,1020.32
2023-04-21T04:56:39.859Z,1020.32
2023-04-21T04:57:10.423Z,1020.22
2023-04-21T04:57:43.019Z,1020.22
2023-04-21T04:58:15.414Z,1020.32
2023-04-21T04:58:37.546Z,1020.11
2023-04-21T04:59:00.522Z,1020.11
2023-04-21T04:59:34.874Z,1020.11
2023-04-21T05:00:12.581Z,1020.32
2023-04-21T05:00:38.976Z,1020.32
2023-04-21T05:01:10.559Z,1020.22
2023-04-21T05:01:42.925Z,1020.22
2023-04-21T05:02:15.742Z,1020.32
2023-04-21T05:02:38.178Z,1020.22
2023-04-21T05:03:01.225Z,1020.22
2023-04-21T05:03:40.359Z,1020.22
2023-04-21T05:04:07.077Z,1020.42
2023-04-21T05:04:39.172Z,1020.42
2023-04-21T05:05:10.205Z,1020.22
2023-04-21T05:05:42.765Z,1020.22
2023-04-21T05:06:14.732Z,1020.32
2023-04-21T05:06:37.394Z,1020.42
2023-04-21T05:07:00.407Z,1020.42
2023-04-21T05:07:36.556Z,1020.42
2023-04-21T05:08:07.502Z,1020.42
2023-04-21T05:08:39.024Z,1020.42
2023-04-21T05:09:11.341Z,1020.22
2023-04-21T05:09:43.149Z,1020.22
2023-04-21T05:10:17.803Z,1020.32
2023-04-21T05:10:38.117Z,1020.52
2023-04-21T05:11:01.649Z,1020.52
2023-04-21T05:11:35.157Z,1020.52
2023-04-21T05:12:07.850Z,1020.52
2023-04-21T05:12:39.012Z,1020.52
2023-04-21T05:13:13.548Z,1020.62
2023-04-21T05:13:42.860Z,1020.62
2023-04-21T05:14:15.147Z,1020.62
2023-04-21T05:14:38.091Z,1020.52
2023-04-21T05:15:01.999Z,1020.52
2023-04-21T05:15:34.750Z,1020.52
2023-04-21T05:16:15.925Z,1020.42
2023-04-21T05:16:32.848Z,1020.42
2023-04-21T05:17:10.346Z,1020.52
2023-04-21T05:17:43.193Z,1020.52
2023-04-21T05:18:14.787Z,1020.52
2023-04-21T05:18:37.536Z,1020.32
2023-04-21T05:18:59.919Z,1020.32
2023-04-21T05:19:34.928Z,1020.32
2023-04-21T05:20:06.930Z,1020.52
2023-04-21T05:20:38.603Z,1020.52
2023-04-21T05:21:09.985Z,1020.83
2023-04-21T05:21:42.634Z,1020.83
2023-04-21T05:22:14.633Z,1020.52
2023-04-21T05:22:38.328Z,1020.52
2023-04-21T05:23:00.322Z,1020.52
2023-04-21T05:23:34.798Z,1020.52
2023-04-21T05:24:06.655Z,1020.52
2023-04-21T05:24:38.726Z,1020.52
2023-04-21T05:25:09.956Z,1020.62
2023-04-21T05:25:42.899Z,1020.62
2023-04-21T05:26:14.636Z,1020.52
2023-04-21T05:26:40.822Z,1020.62
2023-04-21T05:26:59.636Z,1020.62
2023-04-21T05:27:34.750Z,1020.62
2023-04-21T05:28:07.013Z,1020.42
2023-04-21T05:28:39.274Z,1020.42
2023-04-21T05:29:10.014Z,1020.72
2023-04-21T05:29:42.717Z,1020.72
2023-04-21T05:30:14.714Z,1020.62
2023-04-21T05:30:37.479Z,1020.72
2023-04-21T05:31:02.383Z,1020.72
2023-04-21T05:31:34.746Z,1020.72
2023-04-21T05:32:06.780Z,1020.83
2023-04-21T05:32:39.118Z,1020.83
2023-04-21T05:33:10.317Z,1020.52
2023-04-21T05:33:42.960Z,1020.52
2023-04-21T05:34:14.714Z,1020.52
2023-04-21T05:34:38.293Z,1020.72
2023-04-21T05:35:00.662Z,1020.72
2023-04-21T05:35:37.228Z,1020.72
2023-04-21T05:36:06.782Z,1020.72
2023-04-21T05:36:38.936Z,1020.72
2023-04-21T05:37:10.109Z,1020.52
2023-04-21T05:37:42.716Z,1020.52
2023-04-21T05:38:14.700Z,1020.72
2023-04-21T05:38:37.591Z,1020.83
2023-04-21T05:39:00.036Z,1020.83
2023-04-21T05:39:35.176Z,1020.83
2023-04-21T05:40:06.900Z,1020.72
2023-04-21T05:40:38.851Z,1020.72
2023-04-21T05:41:10.110Z,1020.62
2023-04-21T05:41:42.755Z,1020.62
2023-04-21T05:42:14.719Z,1020.72
2023-04-21T05:42:37.394Z,1020.72
2023-04-21T05:42:59.664Z,1020.72
2023-04-21T05:43:35.078Z,1020.72
2023-04-21T05:44:06.607Z,1020.72
2023-04-21T05:44:33.179Z,1020.72
2023-04-21T05:45:10.932Z,1020.93
2023-04-21T05:45:42.945Z,1020.93
2023-04-21T05:46:16.729Z,1020.72
2023-04-21T05:46:39.008Z,1020.83
2023-04-21T05:47:01.939Z,1020.83
2023-04-21T05:47:34.716Z,1020.83
2023-04-21T05:48:13.690Z,1020.83
2023-04-21T05:48:39.187Z,1020.83
2023-04-21T05:49:10.819Z,1020.83
2023-04-21T05:49:43.392Z,1020.83
2023-04-21T05:50:14.863Z,1020.83
2023-04-21T05:50:37.564Z,1020.83
2023-04-21T05:51:00.756Z,1020.83
2023-04-21T05:51:35.569Z,1020.83
2023-04-21T05:52:07.242Z,1020.83
2023-04-21T05:52:38.591Z,1020.83
2023-04-21T05:53:10.197Z,1020.83
2023-04-21T05:53:43.254Z,1020.83
2023-04-21T05:54:16.097Z,1021.13
2023-04-21T05:54:38.876Z,1020.83
2023-04-21T05:55:01.777Z,1020.83
2023-04-21T05:55:35.960Z,1020.83
2023-04-21T05:56:09.453Z,1020.83
2023-04-21T05:56:39.501Z,1020.83
2023-04-21T05:57:10.829Z,1020.93
2023-04-21T05:57:43.765Z,1020.93
2023-04-21T05:58:15.303Z,1020.83
2023-04-21T05:58:37.962Z,1020.93
2023-04-21T05:59:02.023Z,1020.93
2023-04-21T05:59:37.262Z,1020.93
2023-04-21T06:00:08.174Z,1020.93
2023-04-21T06:00:38.970Z,1020.93
2023-04-21T06:01:14.791Z,1020.72
2023-04-21T06:01:37.036Z,1020.72
2023-04-21T06:02:10.228Z,1020.83
2023-04-21T06:02:41.969Z,1020.83
2023-04-21T06:03:19.419Z,1020.83